Time;durP1;ratioP1;P1;durP2;ratioP2;P2;SDS_P1;SDS_P2;PMS_P1;PMS_P2;Temp;Humidity;BMP_temperature;BMP_pressure;BME280_temperature;BME280_humidity;BME280_pressure;Samples;Min_cycle;Max_cycle;Signal;HPM_P1;HPM_P2
2023/01/04 00:01:19;;;;;;;;;1.00;0.25;;;;;21.01;49.59;101885.34;5058951;28;44828;-73
2023/01/04 00:03:44;;;;;;;;;1.00;0.00;;;;;21.03;49.34;101886.09;5056468;28;45339;-73
2023/01/04 00:06:12;;;;;;;;;0.00;0.00;;;;;20.97;49.26;101879.31;5055173;28;45754;-73
2023/01/04 00:08:38;;;;;;;;;0.50;0.50;;;;;20.98;49.09;101905.00;5056051;28;45368;-77
2023/01/04 00:11:06;;;;;;;;;0.00;0.00;;;;;20.93;49.37;101895.50;5063171;28;48227;-77
2023/01/04 00:13:31;;;;;;;;;0.00;0.00;;;;;20.94;49.33;101908.75;5068925;28;45598;-77
2023/01/04 00:15:58;;;;;;;;;0.00;0.00;;;;;20.88;49.61;101903.75;5053003;28;46953;-76
2023/01/04 00:18:23;;;;;;;;;2.25;0.00;;;;;20.87;49.29;101891.38;5067430;27;45575;-76
2023/01/04 00:20:49;;;;;;;;;1.00;0.00;;;;;20.90;49.69;101893.03;5054669;28;53350;-76
2023/01/04 00:23:14;;;;;;;;;0.00;0.00;;;;;20.88;49.70;101885.13;5057828;28;52916;-76
2023/01/04 00:25:39;;;;;;;;;4.75;0.75;;;;;20.84;49.79;101872.91;5060573;28;51440;-76
2023/01/04 00:28:05;;;;;;;;;0.00;0.00;;;;;20.85;49.39;101874.63;5033652;28;45409;-75
2023/01/04 00:30:30;;;;;;;;;1.25;0.00;;;;;20.86;49.67;101881.69;5059686;28;45651;-76
2023/01/04 00:32:56;;;;;;;;;0.75;0.00;;;;;20.85;49.88;101877.28;5034506;28;45427;-76
2023/01/04 00:35:22;;;;;;;;;0.00;0.00;;;;;20.81;49.34;101873.09;5071278;27;45950;-75
2023/01/04 00:37:47;;;;;;;;;1.00;0.00;;;;;20.84;49.65;101884.44;5067726;27;46032;-75
2023/01/04 00:40:12;;;;;;;;;0.00;0.00;;;;;20.86;49.54;101881.69;5057764;28;58070;-75
2023/01/04 00:42:38;;;;;;;;;1.00;0.00;;;;;20.80;49.56;101858.03;5087763;27;45612;-75
2023/01/04 00:45:04;;;;;;;;;0.00;0.00;;;;;20.85;49.32;101867.50;5073475;27;45452;-76
2023/01/04 00:47:29;;;;;;;;;0.00;0.00;;;;;20.80;49.75;101868.69;5055760;28;45442;-76
2023/01/04 00:49:54;;;;;;;;;0.00;0.00;;;;;20.85;49.48;101866.66;5057457;28;45466;-77
2023/01/04 00:52:20;;;;;;;;;0.25;0.00;;;;;20.83;49.94;101863.22;5052821;28;62070;-77
2023/01/04 00:54:45;;;;;;;;;0.75;0.00;;;;;20.85;49.49;101864.00;5055795;28;46021;-76
2023/01/04 00:57:11;;;;;;;;;0.25;0.00;;;;;20.71;49.36;101851.41;5057138;28;59125;-76
2023/01/04 00:59:36;;;;;;;;;0.25;0.00;;;;;20.85;49.74;101869.31;5057780;28;45679;-76
2023/01/04 01:02:01;;;;;;;;;2.50;0.00;;;;;20.82;49.44;101853.50;5088364;27;45341;-77
2023/01/04 01:04:27;;;;;;;;;1.00;0.00;;;;;20.83;49.50;101849.91;5059967;28;45351;-77
2023/01/04 01:06:55;;;;;;;;;0.00;0.00;;;;;20.79;49.75;101843.91;5091596;27;45296;-77
2023/01/04 01:09:21;;;;;;;;;0.00;0.00;;;;;20.85;49.60;101851.53;5059565;28;45513;-76
2023/01/04 01:11:47;;;;;;;;;0.00;0.00;;;;;20.84;49.53;101836.53;5056721;28;45574;-76
2023/01/04 01:14:18;;;;;;;;;0.00;0.00;;;;;20.83;49.66;101834.81;5061762;28;45427;-76
2023/01/04 01:16:44;;;;;;;;;0.00;0.00;;;;;20.84;50.00;101833.00;5043037;28;45854;-76
2023/01/04 01:19:09;;;;;;;;;0.00;0.00;;;;;20.84;49.85;101830.34;5076002;27;45732;-76
2023/01/04 01:21:36;;;;;;;;;0.00;0.00;;;;;20.83;49.83;101831.28;5074125;27;45851;-77
2023/01/04 01:24:02;;;;;;;;;0.50;0.00;;;;;20.84;49.96;101825.00;5043754;28;47337;-76
2023/01/04 01:26:27;;;;;;;;;0.75;0.00;;;;;20.77;49.87;101811.19;5059428;28;45419;-76
2023/01/04 01:28:53;;;;;;;;;0.00;0.00;;;;;20.83;50.04;101824.16;5058681;28;45728;-76
2023/01/04 01:31:23;;;;;;;;;0.00;0.00;;;;;20.84;49.98;101830.34;5096490;27;48411;-77
2023/01/04 01:33:50;;;;;;;;;0.00;0.00;;;;;20.85;50.07;101837.38;5080342;27;48258;-76
2023/01/04 01:36:16;;;;;;;;;0.25;0.00;;;;;20.82;49.60;101833.09;5065358;28;45826;-76
2023/01/04 01:38:42;;;;;;;;;0.00;0.00;;;;;20.81;49.86;101828.72;5078320;27;45299;-76
2023/01/04 01:41:18;;;;;;;;;0.00;0.00;;;;;20.83;49.85;101831.28;5045995;28;45462;-76
2023/01/04 01:43:52;;;;;;;;;0.00;0.00;;;;;20.84;49.53;101836.53;5066912;28;45464;-76
2023/01/04 01:46:40;;;;;;;;;0.00;0.00;;;;;20.82;49.66;101837.53;5074407;27;45366;-75
2023/01/04 01:49:27;;;;;;;;;0.00;0.00;;;;;20.84;49.74;101831.22;5064864;28;45172;-76
2023/01/04 01:51:55;;;;;;;;;0.00;0.00;;;;;20.73;49.67;101814.94;5056875;28;45486;-75
2023/01/04 01:54:30;;;;;;;;;0.00;0.00;;;;;20.84;49.67;101825.91;5042344;28;47374;-75
2023/01/04 01:56:57;;;;;;;;;0.00;0.00;;;;;20.85;49.56;101832.06;5074552;27;45621;-75
2023/01/04 01:59:23;;;;;;;;;0.00;0.00;;;;;20.82;49.38;101827.78;5042839;28;45581;-75
2023/01/04 02:01:48;;;;;;;;;0.00;0.00;;;;;20.74;49.77;101822.00;5058000;28;45678;-76
2023/01/04 02:04:14;;;;;;;;;0.00;0.00;;;;;20.81;49.91;101815.41;5059533;28;45568;-75
2023/01/04 02:06:43;;;;;;;;;0.00;0.00;;;;;20.83;49.64;101816.19;5067654;27;45602;-77
2023/01/04 02:09:08;;;;;;;;;0.00;0.00;;;;;20.78;50.18;101809.38;5057174;28;45463;-77
2023/01/04 02:11:36;;;;;;;;;0.00;0.00;;;;;20.75;50.07;101798.91;5039548;28;45629;-77
2023/01/04 02:17:35;;;;;;;;;0.00;0.00;;;;;20.84;49.89;101822.34;5056407;28;45784;-77
2023/01/04 02:20:10;;;;;;;;;0.00;0.00;;;;;20.82;50.03;101833.09;5040792;28;45581;-76
2023/01/04 02:22:38;;;;;;;;;0.00;0.00;;;;;20.83;49.51;101823.31;5071559;28;45555;-76
2023/01/04 02:25:09;;;;;;;;;0.00;0.00;;;;;20.83;49.96;101836.63;5071686;27;47772;-76
2023/01/04 02:27:45;;;;;;;;;0.00;0.00;;;;;20.81;49.50;101835.84;5055619;28;45256;-76
2023/01/04 02:30:19;;;;;;;;;0.00;0.00;;;;;20.82;49.86;101835.75;5057163;28;45379;-76
2023/01/04 02:33:32;;;;;;;;;0.00;0.00;;;;;20.80;49.37;101845.59;5058750;28;45430;-76
2023/01/04 02:36:20;;;;;;;;;0.00;0.00;;;;;20.79;49.71;101838.56;5063407;27;47046;-76
2023/01/04 02:38:57;;;;;;;;;0.00;0.00;;;;;20.82;49.58;101840.19;5049340;28;45886;-76
2023/01/04 02:41:35;;;;;;;;;0.00;0.00;;;;;20.81;49.54;101831.38;5054524;28;45371;-76
2023/01/04 02:47:01;;;;;;;;;0.00;0.00;;;;;20.78;49.64;101831.53;5070542;28;45798;-76
2023/01/04 02:52:11;;;;;;;;;0.00;0.00;;;;;20.81;49.85;101830.50;5056325;28;45383;-75
2023/01/04 02:54:37;;;;;;;;;0.00;0.00;;;;;20.79;49.55;101829.75;5058016;28;45546;-75
2023/01/04 02:57:23;;;;;;;;;0.00;0.00;;;;;20.78;50.01;101836.84;5036368;28;47378;-75
2023/01/04 03:00:07;;;;;;;;;0.00;0.00;;;;;20.81;49.84;101839.34;5060798;28;45312;-77
2023/01/04 03:06:16;;;;;;;;;0.00;0.00;;;;;20.81;49.61;101833.19;5057918;28;45735;-77
2023/01/04 03:09:01;;;;;;;;;0.00;0.00;;;;;20.77;49.89;101826.28;5054440;28;46037;-77
2023/01/04 03:14:23;;;;;;;;;0.00;0.00;;;;;20.73;50.04;101804.28;5053651;28;45494;-77
2023/01/04 03:16:49;;;;;;;;;0.00;0.00;;;;;20.80;49.24;101826.13;5088857;27;45584;-76
2023/01/04 03:19:50;;;;;;;;;0.00;0.00;;;;;20.77;49.51;101827.16;5039186;28;48222;-76
2023/01/04 03:22:03;;;;;;;;;3.00;0.00;;;;;20.80;49.60;101819.00;5083295;27;45490;-76
2023/01/04 03:36:05;;;;;;;;;0.00;0.00;;;;;20.78;49.28;101802.25;5054499;28;45465;-76
2023/01/04 03:50:41;;;;;;;;;0.00;0.00;;;;;20.76;49.47;101771.38;5057152;28;45521;-75
2023/01/04 03:53:08;;;;;;;;;0.00;0.00;;;;;20.76;49.76;101787.34;5073222;28;47399;-76
2023/01/04 03:55:34;;;;;;;;;0.75;0.00;;;;;20.73;49.95;101776.84;5091572;27;45555;-76
2023/01/04 03:58:00;;;;;;;;;0.00;0.00;;;;;20.76;49.73;101769.56;5073949;27;45497;-75
2023/01/04 04:00:26;;;;;;;;;0.00;0.00;;;;;20.75;49.83;101764.31;5038353;28;45513;-76
2023/01/04 04:02:52;;;;;;;;;1.00;0.00;;;;;20.76;49.40;101768.72;5054255;28;46441;-75
2023/01/04 04:10:52;;;;;;;;;0.00;0.00;;;;;20.73;49.43;101748.44;5056746;28;45383;-76
2023/01/04 04:13:18;;;;;;;;;0.00;0.00;;;;;20.75;49.71;101761.66;5057978;28;45319;-76
2023/01/04 04:15:43;;;;;;;;;0.00;0.00;;;;;20.74;49.57;101767.94;5055554;28;45438;-76
2023/01/04 04:18:09;;;;;;;;;0.00;0.00;;;;;20.78;49.79;101765.00;5053535;28;45527;-77
2023/01/04 04:20:34;;;;;;;;;0.00;0.00;;;;;20.76;49.74;101764.25;5063876;28;52946;-77
2023/01/04 04:23:00;;;;;;;;;0.00;0.00;;;;;20.76;49.49;101777.53;5038649;28;47086;-76
2023/01/04 04:25:25;;;;;;;;;0.00;0.00;;;;;20.73;49.20;101752.91;5056889;28;45435;-76
2023/01/04 04:27:51;;;;;;;;;0.00;0.00;;;;;20.73;49.17;101764.38;5032017;28;45503;-76
2023/01/04 04:30:16;;;;;;;;;1.00;0.00;;;;;20.76;49.67;101771.38;5056557;28;45323;-77
2023/01/04 04:32:41;;;;;;;;;0.00;0.00;;;;;20.75;49.77;101766.97;5035326;28;62108;-77
2023/01/04 04:35:07;;;;;;;;;0.00;0.00;;;;;20.77;49.26;101770.41;5039232;28;45476;-77
2023/01/04 04:37:33;;;;;;;;;0.00;0.00;;;;;20.74;49.38;101762.63;5082378;27;45477;-77
2023/01/04 04:39:59;;;;;;;;;0.00;0.00;;;;;20.76;49.60;101763.38;5057304;28;45452;-77
2023/01/04 04:42:24;;;;;;;;;0.00;0.00;;;;;20.76;49.32;101772.22;5053993;28;46322;-77
2023/01/04 04:44:50;;;;;;;;;0.00;0.00;;;;;20.61;49.86;101749.97;5054807;28;47505;-77
2023/01/04 04:47:15;;;;;;;;;0.00;0.00;;;;;20.76;49.73;101766.06;5052340;28;45648;-77
2023/01/04 04:49:41;;;;;;;;;0.00;0.00;;;;;20.77;49.38;101759.78;5056457;28;45470;-76
2023/01/04 04:52:06;;;;;;;;;0.00;0.00;;;;;20.76;49.48;101768.72;5039850;28;56095;-76
2023/01/04 04:54:31;;;;;;;;;0.00;0.00;;;;;20.76;49.69;101753.59;5049510;28;45379;-77
2023/01/04 04:56:57;;;;;;;;;0.00;0.00;;;;;20.56;49.58;101736.03;5052101;28;45442;-76
2023/01/04 04:59:22;;;;;;;;;1.00;0.00;;;;;20.73;49.70;101752.91;5055841;28;45691;-77
2023/01/04 05:01:48;;;;;;;;;0.00;0.00;;;;;20.70;49.56;101751.28;5052895;28;45552;-77
2023/01/04 05:04:15;;;;;;;;;0.00;0.00;;;;;20.75;49.43;101767.84;5038560;28;45462;-76
2023/01/04 05:06:42;;;;;;;;;0.00;0.00;;;;;20.72;49.44;101744.06;5053091;28;46129;-75
2023/01/04 05:09:07;;;;;;;;;0.00;0.00;;;;;20.72;49.44;101729.91;5040006;28;45840;-75
2023/01/04 05:14:17;;;;;;;;;0.25;0.00;;;;;20.73;49.44;101736.94;5053355;28;45307;-74
2023/01/04 05:16:43;;;;;;;;;0.00;0.00;;;;;20.72;49.55;101735.25;5046321;28;49150;-75
2023/01/04 05:19:09;;;;;;;;;0.00;0.00;;;;;20.71;49.76;101736.16;5051441;28;45671;-74
2023/01/04 05:21:34;;;;;;;;;0.00;0.00;;;;;20.72;49.35;101736.09;5086986;27;46822;-75
2023/01/04 05:24:02;;;;;;;;;0.00;0.00;;;;;20.70;49.84;101737.09;5055940;28;62669;-75
2023/01/04 05:26:27;;;;;;;;;0.00;0.00;;;;;20.69;49.20;101733.59;5032263;28;45455;-75
2023/01/04 05:28:53;;;;;;;;;0.00;0.00;;;;;20.63;49.32;101729.47;5054611;28;54392;-76
2023/01/04 05:31:18;;;;;;;;;0.00;0.00;;;;;20.75;49.54;101753.69;5054718;28;47289;-75
2023/01/04 05:33:43;;;;;;;;;0.00;0.00;;;;;20.74;49.41;101751.97;5052187;28;45505;-75
2023/01/04 05:36:09;;;;;;;;;0.00;0.00;;;;;20.74;49.34;101751.97;5086494;27;53092;-75
2023/01/04 05:38:34;;;;;;;;;0.00;0.00;;;;;20.73;49.68;101751.09;5038866;28;50068;-75
2023/01/04 05:41:00;;;;;;;;;0.00;0.00;;;;;20.73;49.62;101756.41;5053816;28;47256;-75
2023/01/04 05:43:25;;;;;;;;;0.00;0.00;;;;;20.69;49.62;101746.03;5051661;28;45653;-75
2023/01/04 05:45:53;;;;;;;;;0.00;0.00;;;;;20.69;49.53;101749.53;5058128;28;48413;-75
2023/01/04 05:48:19;;;;;;;;;0.00;0.00;;;;;20.73;49.44;101747.59;5051112;28;45458;-75
2023/01/04 05:50:45;;;;;;;;;0.00;0.00;;;;;20.70;49.68;101743.31;5061098;28;45466;-76
2023/01/04 05:53:12;;;;;;;;;0.00;0.00;;;;;20.70;49.75;101756.59;5060775;28;67641;-76
2023/01/04 05:55:40;;;;;;;;;0.00;0.00;;;;;20.72;49.35;101749.41;5063264;28;45369;-76
2023/01/04 05:58:05;;;;;;;;;0.00;0.00;;;;;20.70;49.78;101739.75;5064854;27;57321;-75
2023/01/04 06:00:31;;;;;;;;;0.00;0.00;;;;;20.69;49.51;101752.22;5054865;28;62601;-75
2023/01/04 06:02:57;;;;;;;;;0.00;0.00;;;;;20.71;49.36;101758.31;5044835;28;45454;-75
2023/01/04 06:05:23;;;;;;;;;0.00;0.00;;;;;20.64;50.00;101757.75;5056970;28;45882;-75
2023/01/04 06:07:49;;;;;;;;;0.00;0.00;;;;;20.64;49.72;101760.41;5038817;28;45761;-75
2023/01/04 06:10:15;;;;;;;;;0.00;0.00;;;;;20.58;49.47;101752.75;5041827;28;46256;-74
2023/01/04 06:12:40;;;;;;;;;0.00;0.00;;;;;20.67;49.52;101764.72;5058372;28;45404;-75
2023/01/04 06:15:07;;;;;;;;;1.00;0.00;;;;;20.62;49.78;101751.66;5042566;28;45543;-75
2023/01/04 06:17:33;;;;;;;;;0.00;0.00;;;;;20.70;49.51;101766.34;5058733;28;45632;-75
2023/01/04 06:19:59;;;;;;;;;0.00;0.00;;;;;20.64;49.76;101751.59;5041623;28;47141;-75
2023/01/04 06:22:25;;;;;;;;;0.00;0.00;;;;;20.67;49.79;101762.06;5038233;28;45539;-76
2023/01/04 06:24:51;;;;;;;;;0.00;0.00;;;;;20.64;49.95;101739.16;5041939;28;45416;-76
2023/01/04 06:27:16;;;;;;;;;0.00;0.00;;;;;20.69;49.52;101743.38;5035183;28;45589;-75
2023/01/04 06:29:42;;;;;;;;;0.00;0.00;;;;;20.60;49.82;101731.41;5069081;27;46957;-75
2023/01/04 06:32:07;;;;;;;;;0.00;0.00;;;;;20.67;49.86;101727.50;5038181;28;45526;-75
2023/01/04 06:34:33;;;;;;;;;0.00;0.00;;;;;20.65;49.76;101737.38;5058588;28;45888;-75
2023/01/04 06:36:58;;;;;;;;;0.00;0.00;;;;;20.67;49.66;101736.31;5058190;28;45528;-79
2023/01/04 06:39:24;;;;;;;;;0.00;0.00;;;;;20.65;49.52;101732.91;5060005;28;45304;-74
2023/01/04 06:41:49;;;;;;;;;0.00;0.00;;;;;20.65;49.91;101740.88;5086853;27;45204;-75
2023/01/04 06:44:15;;;;;;;;;0.00;0.00;;;;;20.66;49.72;101742.59;5060540;28;45397;-83
2023/01/04 06:46:40;;;;;;;;;0.00;0.00;;;;;20.70;49.45;101753.06;5037828;28;45486;-77
2023/01/04 06:49:06;;;;;;;;;0.00;0.00;;;;;20.70;49.38;101753.94;5055238;28;45831;-78
2023/01/04 06:51:31;;;;;;;;;0.00;0.00;;;;;20.70;49.36;101753.94;5076574;27;45419;-77
2023/01/04 06:53:56;;;;;;;;;0.00;0.00;;;;;20.70;49.60;101763.69;5042354;28;45639;-78
2023/01/04 06:56:22;;;;;;;;;0.00;0.00;;;;;20.70;49.95;101764.59;5089264;27;49274;-77
2023/01/04 06:58:50;;;;;;;;;0.00;0.00;;;;;20.62;49.77;101749.00;5077294;27;56971;-77
2023/01/04 07:01:16;;;;;;;;;0.00;0.00;;;;;20.66;49.67;101749.72;5038017;28;46548;-77
2023/01/04 07:03:42;;;;;;;;;0.00;0.00;;;;;20.66;49.39;101758.56;5041996;28;45379;-78
2023/01/04 07:06:07;;;;;;;;;0.00;0.00;;;;;20.65;49.94;101748.84;5037017;28;45443;-77
2023/01/04 07:08:33;;;;;;;;;0.00;0.00;;;;;20.68;49.67;101753.13;5054516;28;45575;-77
2023/01/04 07:10:59;;;;;;;;;0.00;0.00;;;;;20.60;49.50;101731.41;5055258;28;45712;-76
2023/01/04 07:13:24;;;;;;;;;0.00;0.00;;;;;20.58;49.77;101730.63;5073854;27;45384;-75
2023/01/04 07:15:50;;;;;;;;;0.00;0.00;;;;;20.69;49.86;101754.88;5036338;28;47331;-77
2023/01/04 07:18:15;;;;;;;;;0.00;0.00;;;;;20.70;49.69;101761.03;5057542;28;47026;-81
2023/01/04 07:20:40;;;;;;;;;0.00;0.00;;;;;20.49;49.62;101716.88;5040060;28;45678;-70
2023/01/04 07:23:07;;;;;;;;;0.00;0.00;;;;;20.51;49.84;101723.91;5056378;28;45550;-73
2023/01/04 07:25:32;;;;;;;;;0.00;0.00;;;;;20.63;49.62;101736.59;5057644;28;45494;-75
2023/01/04 07:27:58;;;;;;;;;0.25;0.00;;;;;20.71;50.09;101745.00;5072292;27;46290;-73
2023/01/04 07:30:24;;;;;;;;;0.50;0.00;;;;;20.67;49.86;101746.97;5043979;28;45635;-76
2023/01/04 07:32:53;;;;;;;;;0.00;0.00;;;;;20.70;49.83;101751.28;5040599;28;58472;-72
2023/01/04 07:35:22;;;;;;;;;0.75;0.00;;;;;20.70;49.65;101747.75;5040725;28;45434;-72
2023/01/04 07:37:47;;;;;;;;;0.00;0.00;;;;;20.71;50.02;101758.31;5055667;28;46038;-77
2023/01/04 07:40:13;;;;;;;;;0.00;0.00;;;;;20.65;49.84;101750.66;5057563;28;45516;-76
2023/01/04 07:42:38;;;;;;;;;0.00;0.00;;;;;20.72;50.13;101767.16;5097023;27;45463;-71
2023/01/04 07:45:05;;;;;;;;;0.00;0.00;;;;;20.73;50.32;101767.06;5068778;28;45229;-73
2023/01/04 07:47:33;;;;;;;;;0.00;0.00;;;;;20.72;50.11;101781.31;5045933;28;47025;-75
2023/01/04 07:50:02;;;;;;;;;0.00;0.00;;;;;20.70;50.21;101761.91;5071624;28;44818;-75
2023/01/04 07:52:27;;;;;;;;;0.00;0.00;;;;;20.72;50.25;101772.47;5102996;27;45311;-74
2023/01/04 07:54:52;;;;;;;;;0.00;0.00;;;;;20.74;49.75;101771.44;5087674;27;57793;-72
2023/01/04 07:57:18;;;;;;;;;0.00;0.00;;;;;20.71;49.94;101758.31;5072332;28;45182;-74
2023/01/04 07:59:43;;;;;;;;;0.00;0.00;;;;;20.72;49.89;101764.50;5076036;28;44733;-72
2023/01/04 08:02:13;;;;;;;;;0.00;0.00;;;;;20.72;49.76;101764.50;5060183;28;47501;-73
2023/01/04 08:04:38;;;;;;;;;0.50;0.00;;;;;20.67;50.29;101760.25;5062100;28;45357;-73
2023/01/04 08:07:05;;;;;;;;;0.75;0.00;;;;;20.64;49.90;101763.09;5057209;28;45603;-73
2023/01/04 08:09:30;;;;;;;;;0.00;0.00;;;;;20.71;49.79;101768.09;5042458;28;45475;-74
2023/01/04 08:11:55;;;;;;;;;0.00;0.00;;;;;20.69;49.93;101764.66;5057371;28;53968;-73
2023/01/04 08:14:22;;;;;;;;;0.00;0.00;;;;;20.67;50.37;101746.97;5054694;28;61967;-73
2023/01/04 08:16:50;;;;;;;;;0.00;0.00;;;;;20.69;49.87;101760.19;5054127;28;46431;-73
2023/01/04 08:19:19;;;;;;;;;0.00;0.00;;;;;20.70;49.90;101759.25;5072646;28;45829;-73
2023/01/04 08:21:45;;;;;;;;;0.00;0.00;;;;;20.68;50.08;101755.78;5089482;27;45409;-73
2023/01/04 08:24:12;;;;;;;;;0.00;0.00;;;;;20.67;49.79;101744.31;5039982;28;45412;-73
2023/01/04 08:26:38;;;;;;;;;0.00;0.00;;;;;20.69;49.69;101767.31;5051363;28;45680;-73
2023/01/04 08:29:03;;;;;;;;;0.00;0.00;;;;;20.52;49.74;101737.09;5037901;28;52383;-73
2023/01/04 08:31:30;;;;;;;;;0.00;0.00;;;;;20.64;49.65;101757.75;5089805;27;49273;-73
2023/01/04 08:34:00;;;;;;;;;0.00;0.00;;;;;20.64;50.25;101743.63;5055656;28;45576;-73
2023/01/04 08:36:44;;;;;;;;;0.00;0.00;;;;;20.66;50.30;101747.03;5053247;28;46095;-73
2023/01/04 08:39:09;;;;;;;;;0.00;0.00;;;;;20.63;50.16;101741.91;5054452;28;45456;-73
2023/01/04 08:41:49;;;;;;;;;0.00;0.00;;;;;20.64;50.09;101751.59;5042014;28;49062;-73
2023/01/04 08:44:16;;;;;;;;;0.00;0.00;;;;;20.54;50.22;101740.56;5054162;28;45542;-73
2023/01/04 08:46:41;;;;;;;;;0.00;0.00;;;;;20.61;49.65;101765.94;5054449;28;45429;-73
2023/01/04 08:49:06;;;;;;;;;0.00;0.00;;;;;20.52;49.90;101752.22;5074760;28;52130;-73
2023/01/04 08:51:32;;;;;;;;;0.00;0.00;;;;;20.60;50.08;101760.66;5056112;28;45393;-73
2023/01/04 08:53:58;;;;;;;;;0.00;0.00;;;;;20.64;49.56;101762.22;5057238;28;62161;-73
2023/01/04 08:56:23;;;;;;;;;0.25;0.00;;;;;20.60;49.56;101764.16;5041544;28;47172;-73
2023/01/04 08:58:48;;;;;;;;;0.00;0.00;;;;;20.62;50.21;101772.09;5058943;28;54683;-73
2023/01/04 09:01:13;;;;;;;;;0.75;0.00;;;;;20.62;49.62;101770.28;5060221;28;45716;-73
2023/01/04 09:03:40;;;;;;;;;0.00;0.00;;;;;20.58;50.03;101766.03;5054205;28;48643;-73
2023/01/04 09:06:12;;;;;;;;;0.00;0.00;;;;;20.59;50.01;101767.78;5056772;28;46051;-73
2023/01/04 09:08:38;;;;;;;;;0.00;0.00;;;;;20.61;49.92;101773.00;5074175;27;45403;-73
2023/01/04 09:11:05;;;;;;;;;1.00;0.00;;;;;20.59;49.39;101761.56;5038855;28;45544;-73
2023/01/04 09:13:32;;;;;;;;;0.00;0.00;;;;;20.58;49.53;101759.88;5047166;28;46436;-73
2023/01/04 09:16:02;;;;;;;;;0.00;0.00;;;;;20.54;49.57;101747.66;5040872;28;47212;-73
2023/01/04 09:18:27;;;;;;;;;0.00;0.00;;;;;20.56;49.57;101748.47;5068448;28;45455;-73
2023/01/04 09:20:52;;;;;;;;;0.00;0.00;;;;;20.54;49.60;101748.53;5048641;28;45306;-73
2023/01/04 09:23:18;;;;;;;;;0.00;0.00;;;;;20.54;49.60;101740.56;5054216;28;45453;-73
2023/01/04 09:25:43;;;;;;;;;0.00;0.00;;;;;20.56;49.73;101751.97;5056179;28;48015;-73
2023/01/04 09:28:09;;;;;;;;;0.00;0.00;;;;;20.54;49.09;101745.00;5063148;28;45484;-73
2023/01/04 09:30:35;;;;;;;;;0.00;0.00;;;;;20.56;49.65;101740.50;5068428;28;45437;-73
2023/01/04 09:33:00;;;;;;;;;0.00;0.00;;;;;20.57;49.46;101735.06;5053693;28;63104;-73
2023/01/04 09:35:25;;;;;;;;;1.00;0.00;;;;;20.55;49.56;101741.41;5056541;28;63956;-73
2023/01/04 09:37:51;;;;;;;;;0.00;0.00;;;;;20.55;49.58;101749.41;5055838;28;45504;-73
2023/01/04 09:40:22;;;;;;;;;1.00;0.00;;;;;20.55;49.58;101749.41;5060778;28;53522;-73
2023/01/04 09:42:48;;;;;;;;;0.00;0.00;;;;;20.53;49.17;101740.66;5035387;28;45471;-73
2023/01/04 09:45:25;;;;;;;;;0.00;0.00;;;;;20.52;49.11;101737.09;5044406;28;47293;-73
2023/01/04 09:48:13;;;;;;;;;0.00;0.00;;;;;20.53;49.49;101728.19;5055454;28;45690;-73
2023/01/04 09:51:12;;;;;;;;;0.00;0.00;;;;;20.54;49.68;101750.31;5051022;28;45490;-75
2023/01/04 09:53:43;;;;;;;;;0.00;0.00;;;;;20.55;49.09;101741.41;5057542;28;45516;-73
2023/01/04 09:56:17;;;;;;;;;0.00;0.00;;;;;20.54;49.45;101752.97;5059736;28;46816;-73
2023/01/04 09:58:42;;;;;;;;;0.00;0.00;;;;;20.51;49.57;101754.00;5061784;27;45694;-73
2023/01/04 10:01:17;;;;;;;;;0.00;0.00;;;;;20.49;49.33;101761.22;5051395;28;60051;-73
2023/01/04 10:04:17;;;;;;;;;0.00;0.00;;;;;20.53;49.45;101762.78;5051281;28;45545;-73
2023/01/04 10:06:42;;;;;;;;;0.00;0.00;;;;;20.51;49.05;101758.47;5054624;28;47042;-73
2023/01/04 10:09:13;;;;;;;;;0.00;0.00;;;;;20.53;49.08;101756.59;5054964;28;45376;-73
2023/01/04 10:11:57;;;;;;;;;0.00;0.00;;;;;20.53;49.17;101759.25;5079466;27;45447;-73
2023/01/04 10:14:49;;;;;;;;;0.00;0.00;;;;;20.52;49.45;101753.06;5060342;28;45451;-73
2023/01/04 10:17:28;;;;;;;;;0.00;0.00;;;;;20.49;49.44;101759.41;5051754;28;45731;-73
2023/01/04 10:20:21;;;;;;;;;0.00;0.00;;;;;20.49;49.33;101762.06;5044211;28;46261;-73
2023/01/04 10:22:52;;;;;;;;;0.00;0.00;;;;;20.51;48.98;101762.00;5051795;28;45733;-73
2023/01/04 10:25:29;;;;;;;;;0.00;0.00;;;;;20.50;49.40;101762.91;5057746;28;45478;-73
2023/01/04 10:28:01;;;;;;;;;0.00;0.00;;;;;20.51;48.91;101761.16;5060052;28;45509;-73
2023/01/04 10:30:35;;;;;;;;;0.00;0.00;;;;;20.50;48.89;101757.59;5065448;28;45390;-73
2023/01/04 10:33:23;;;;;;;;;0.00;0.00;;;;;20.47;49.01;101760.44;5057014;28;45450;-73
2023/01/04 10:35:49;;;;;;;;;0.50;0.00;;;;;20.51;49.05;101769.13;5058808;28;45469;-73
2023/01/04 10:38:27;;;;;;;;;0.00;0.00;;;;;20.49;49.19;101764.72;5057668;28;47414;-73
2023/01/04 10:40:54;;;;;;;;;1.00;0.00;;;;;20.47;49.14;101758.63;5060834;28;45832;-73
2023/01/04 10:43:40;;;;;;;;;0.00;0.00;;;;;20.48;49.16;101752.34;5043577;28;47835;-73
2023/01/04 10:46:06;;;;;;;;;0.00;0.00;;;;;20.48;48.85;101754.16;5081090;27;45558;-73
2023/01/04 10:48:48;;;;;;;;;0.00;0.00;;;;;20.47;48.69;101761.28;5060646;28;45469;-73
2023/01/04 10:51:18;;;;;;;;;0.00;0.00;;;;;20.48;48.76;101754.16;5058758;28;45244;-73
2023/01/04 10:54:15;;;;;;;;;0.00;0.00;;;;;20.47;49.32;101748.00;5063896;28;45530;-73
2023/01/04 10:56:47;;;;;;;;;0.00;0.00;;;;;20.47;48.85;101753.31;5044534;28;45331;-73
2023/01/04 10:59:20;;;;;;;;;0.00;0.00;;;;;20.46;49.11;101753.41;5040988;28;48187;-73
2023/01/04 11:01:56;;;;;;;;;0.00;0.00;;;;;20.48;49.03;101760.34;5058340;28;45612;-73
2023/01/04 11:04:28;;;;;;;;;0.50;0.00;;;;;20.45;48.76;101746.34;5066519;28;45451;-73
2023/01/04 11:06:58;;;;;;;;;0.00;0.00;;;;;20.43;48.87;101746.44;5050759;28;45394;-73
2023/01/04 11:09:29;;;;;;;;;0.00;0.00;;;;;20.47;49.17;101742.69;5057842;28;48301;-73
2023/01/04 11:11:56;;;;;;;;;0.00;0.00;;;;;20.47;49.18;101745.34;5063855;28;45800;-73
2023/01/04 11:14:26;;;;;;;;;0.00;0.00;;;;;20.44;49.20;101737.53;5050318;28;45382;-73
2023/01/04 11:17:00;;;;;;;;;0.25;0.00;;;;;20.46;49.09;101737.44;5086123;27;45491;-73
2023/01/04 11:19:27;;;;;;;;;0.00;0.00;;;;;20.42;49.09;101725.25;5037036;28;45654;-73
2023/01/04 11:21:59;;;;;;;;;0.00;0.00;;;;;20.47;48.64;101740.03;5087766;27;45482;-73
2023/01/04 11:24:28;;;;;;;;;0.00;0.00;;;;;20.45;48.61;101727.72;5058679;28;45403;-73
2023/01/04 11:26:54;;;;;;;;;0.00;0.00;;;;;20.45;48.53;101728.63;5069577;27;45578;-73
2023/01/04 11:29:51;;;;;;;;;0.00;0.00;;;;;20.44;48.95;101724.22;5058670;28;53322;-73
2023/01/04 11:32:31;;;;;;;;;0.00;0.00;;;;;20.48;48.98;101727.56;5043788;28;45893;-73
2023/01/04 11:34:57;;;;;;;;;0.00;0.00;;;;;20.43;48.87;101716.31;5032411;28;45502;-73
2023/01/04 11:37:34;;;;;;;;;0.00;0.00;;;;;20.47;49.06;101723.22;5054087;28;45562;-73
2023/01/04 11:40:21;;;;;;;;;0.00;0.00;;;;;20.44;48.96;101718.06;5060212;28;45395;-73
2023/01/04 11:43:14;;;;;;;;;0.00;0.00;;;;;20.46;48.87;101716.16;5058537;28;45745;-73
2023/01/04 11:45:39;;;;;;;;;0.00;0.00;;;;;20.45;48.88;101717.09;5056000;28;45613;-74
2023/01/04 11:48:05;;;;;;;;;0.50;0.00;;;;;20.44;48.51;101710.06;5059286;28;45628;-73
2023/01/04 11:50:37;;;;;;;;;0.00;0.00;;;;;20.45;48.60;101706.47;5062677;28;45370;-73
2023/01/04 11:53:20;;;;;;;;;0.00;0.00;;;;;20.42;48.70;101706.66;5040151;28;45733;-73
2023/01/04 11:55:45;;;;;;;;;0.00;0.00;;;;;20.43;48.40;101705.69;5075156;28;45444;-73
2023/01/04 11:58:13;;;;;;;;;0.00;0.00;;;;;20.43;48.86;101706.56;5056657;28;51718;-74
2023/01/04 12:00:58;;;;;;;;;0.00;0.00;;;;;20.44;48.58;101697.63;5060566;28;48369;-73
2023/01/04 12:03:37;;;;;;;;;0.00;0.00;;;;;20.39;48.83;101689.03;5075902;27;45564;-73
2023/01/04 12:06:09;;;;;;;;;0.00;0.00;;;;;20.43;48.49;101697.72;5063543;28;45426;-73
2023/01/04 12:08:35;;;;;;;;;0.00;0.00;;;;;20.44;48.42;101691.47;5035435;28;45407;-74
2023/01/04 12:11:04;;;;;;;;;0.00;0.00;;;;;20.43;48.56;101689.72;5072952;27;46882;-73
2023/01/04 12:13:32;;;;;;;;;0.00;0.00;;;;;20.41;48.61;101691.63;5041724;28;45714;-74
2023/01/04 12:15:57;;;;;;;;;0.00;0.00;;;;;20.43;48.78;101695.94;5039072;28;45592;-74
2023/01/04 12:18:28;;;;;;;;;1.00;0.00;;;;;20.38;48.59;101690.00;5055989;28;45399;-73
2023/01/04 12:20:58;;;;;;;;;0.00;0.00;;;;;20.31;48.60;101675.31;5057077;28;46341;-74